Time;durP1;ratioP1;P1;durP2;ratioP2;P2;SDS_P1;SDS_P2;PMS_P1;PMS_P2;Temp;Humidity;BMP_temperature;BMP_pressure;BME280_temperature;BME280_humidity;BME280_pressure;Samples;Min_cycle;Max_cycle;Signal;HPM_P1;HPM_P2
2022/10/05 00:01:43;;;;;;;13.32;9.00;;;14.90;99.90;;;;;;4973647;28;20091;-76
2022/10/05 00:04:23;;;;;;;16.73;8.70;;;14.90;99.90;;;;;;4958860;28;20058;-77
2022/10/05 00:07:11;;;;;;;14.05;9.07;;;15.00;99.90;;;;;;4985755;28;20038;-77
2022/10/05 00:09:37;;;;;;;14.40;8.70;;;14.90;99.90;;;;;;4980202;28;20121;-77
2022/10/05 00:12:16;;;;;;;11.93;8.73;;;14.90;99.90;;;;;;4970223;28;20122;-77
2022/10/05 00:14:43;;;;;;;12.60;8.75;;;14.90;99.90;;;;;;4961041;28;20049;-77
2022/10/05 00:17:20;;;;;;;12.15;8.55;;;14.90;99.90;;;;;;4977826;28;20046;-76
2022/10/05 00:19:50;;;;;;;12.43;8.73;;;14.90;99.90;;;;;;4958190;28;20523;-77
2022/10/05 00:22:29;;;;;;;11.63;7.65;;;14.90;99.90;;;;;;4968895;28;20035;-77
2022/10/05 00:24:58;;;;;;;11.82;7.60;;;14.90;99.90;;;;;;4974652;28;20051;-77
2022/10/05 00:27:30;;;;;;;13.23;7.97;;;14.90;99.90;;;;;;4967293;28;20047;-77
2022/10/05 00:29:58;;;;;;;11.43;7.35;;;14.90;99.90;;;;;;4942499;29;20130;-77
2022/10/05 00:32:25;;;;;;;12.43;7.65;;;14.90;99.90;;;;;;4956857;29;20071;-77
2022/10/05 00:34:52;;;;;;;11.45;7.90;;;14.90;99.90;;;;;;4952362;28;20042;-77
2022/10/05 00:37:18;;;;;;;11.10;7.88;;;14.90;99.90;;;;;;4976555;28;20051;-77
2022/10/05 00:39:44;;;;;;;11.07;7.53;;;14.90;99.90;;;;;;4960290;28;20062;-77
2022/10/05 00:42:32;;;;;;;10.98;6.95;;;14.80;99.90;;;;;;4976109;28;20085;-76
2022/10/05 00:45:09;;;;;;;9.48;6.78;;;14.90;99.90;;;;;;4956632;28;20546;-76
2022/10/05 00:47:46;;;;;;;10.82;7.15;;;14.90;99.90;;;;;;4967519;28;20105;-77
2022/10/05 00:50:47;;;;;;;13.63;7.07;;;14.90;99.90;;;;;;4975843;28;20046;-77
2022/10/05 00:53:41;;;;;;;11.30;6.80;;;14.80;99.90;;;;;;4972682;28;20043;-77
2022/10/05 00:56:07;;;;;;;9.50;6.80;;;14.80;99.90;;;;;;4975932;28;20441;-76
2022/10/05 00:58:59;;;;;;;10.20;6.65;;;14.80;99.90;;;;;;4959721;28;20042;-76
2022/10/05 01:01:47;;;;;;;11.60;6.72;;;14.80;99.90;;;;;;4975588;28;20407;-77
2022/10/05 01:04:28;;;;;;;12.95;6.70;;;14.80;99.90;;;;;;4952741;29;20112;-76
2022/10/05 01:10:28;;;;;;;8.45;6.25;;;14.80;99.90;;;;;;4973542;28;20391;-77
2022/10/05 01:13:11;;;;;;;12.80;7.35;;;14.80;99.90;;;;;;4980692;28;20045;-77
2022/10/05 01:15:56;;;;;;;10.38;6.90;;;14.80;99.90;;;;;;4981255;28;20066;-77
2022/10/05 01:18:52;;;;;;;11.77;7.40;;;14.80;99.90;;;;;;4971524;28;20043;-77
2022/10/05 01:21:20;;;;;;;12.23;7.95;;;14.80;99.90;;;;;;4964838;28;20050;-76
2022/10/05 01:24:11;;;;;;;11.27;8.18;;;14.80;99.90;;;;;;4971920;28;20043;-77
2022/10/05 01:27:14;;;;;;;11.75;7.85;;;14.80;99.90;;;;;;4952681;28;20058;-77
2022/10/05 01:29:50;;;;;;;12.48;8.40;;;14.80;99.90;;;;;;4966007;28;20510;-76
2022/10/05 01:32:29;;;;;;;11.95;8.10;;;14.90;99.90;;;;;;4974526;28;20086;-77
2022/10/05 01:35:49;;;;;;;12.85;8.20;;;14.80;99.90;;;;;;4975074;28;20113;-77
2022/10/05 01:38:36;;;;;;;12.13;8.90;;;14.80;99.90;;;;;;4938784;29;20050;-77
2022/10/05 01:41:07;;;;;;;14.63;9.40;;;14.80;99.90;;;;;;4974105;28;20578;-77
2022/10/05 01:43:37;;;;;;;13.98;9.57;;;14.80;99.90;;;;;;4976453;28;20553;-77
2022/10/05 01:46:23;;;;;;;13.52;10.02;;;14.80;99.90;;;;;;4974299;28;20101;-77
2022/10/05 01:49:07;;;;;;;14.43;10.30;;;14.80;99.90;;;;;;4971595;28;20043;-77
2022/10/05 01:51:52;;;;;;;13.75;10.10;;;14.80;99.90;;;;;;4962718;28;20043;-77
2022/10/05 01:54:43;;;;;;;16.67;10.48;;;14.80;99.90;;;;;;4974469;28;20050;-77
2022/10/05 01:57:52;;;;;;;15.48;10.68;;;14.80;99.90;;;;;;4975586;28;20046;-77
2022/10/05 02:00:19;;;;;;;14.43;11.00;;;14.80;99.90;;;;;;4950163;28;20449;-77
2022/10/05 02:03:09;;;;;;;15.35;10.98;;;14.80;99.90;;;;;;4971978;28;20117;-76
2022/10/05 02:05:47;;;;;;;13.85;10.55;;;14.80;99.90;;;;;;4974365;28;20122;-76
2022/10/05 02:08:20;;;;;;;15.50;10.30;;;14.80;99.90;;;;;;4988200;28;20039;-76
2022/10/05 02:11:06;;;;;;;14.75;10.40;;;14.70;99.90;;;;;;4964413;28;20126;-77
2022/10/05 02:13:42;;;;;;;14.48;10.55;;;14.80;99.90;;;;;;4960305;28;20147;-76
2022/10/05 02:16:30;;;;;;;14.43;10.45;;;14.80;99.90;;;;;;4966410;28;20081;-77
2022/10/05 02:19:00;;;;;;;17.05;10.18;;;14.80;99.90;;;;;;4969356;28;20117;-77
2022/10/05 02:21:29;;;;;;;18.00;10.57;;;14.80;99.90;;;;;;4958242;28;20039;-77
2022/10/05 02:23:58;;;;;;;14.73;10.52;;;14.70;99.90;;;;;;4982807;28;20039;-76
2022/10/05 02:26:30;;;;;;;14.77;9.88;;;14.80;99.90;;;;;;4962871;28;20518;-76
2022/10/05 02:28:59;;;;;;;15.23;10.43;;;14.70;99.90;;;;;;4969852;28;20070;-76
2022/10/05 02:31:56;;;;;;;13.57;9.73;;;14.70;99.90;;;;;;4949005;28;20062;-76
2022/10/05 02:34:38;;;;;;;12.10;8.55;;;14.70;99.90;;;;;;4951347;28;20035;-76
2022/10/05 02:37:20;;;;;;;12.82;8.52;;;14.70;99.90;;;;;;4964390;28;20102;-76
2022/10/05 02:40:00;;;;;;;;;;;14.70;99.90;;;;;;4963247;28;20191;-77
2022/10/05 02:42:44;;;;;;;14.20;8.25;;;14.80;99.90;;;;;;4966233;28;20382;-76
2022/10/05 02:45:12;;;;;;;12.80;8.25;;;14.70;99.90;;;;;;4967667;28;20082;-76
2022/10/05 02:47:41;;;;;;;13.57;9.10;;;14.70;99.90;;;;;;4971812;28;20047;-76
2022/10/05 02:50:30;;;;;;;12.25;8.73;;;14.60;99.90;;;;;;4964185;28;20047;-76
2022/10/05 02:53:13;;;;;;;14.15;8.77;;;14.60;99.90;;;;;;4979026;28;20043;-76
2022/10/05 02:55:48;;;;;;;13.02;9.32;;;14.60;99.90;;;;;;4959855;28;20055;-76
2022/10/05 02:58:27;;;;;;;10.95;8.05;;;14.60;99.90;;;;;;4963441;28;20542;-76
2022/10/05 03:01:11;;;;;;;12.30;8.80;;;14.60;99.90;;;;;;4964513;28;20041;-76
2022/10/05 03:03:42;;;;;;;13.93;8.85;;;14.60;99.90;;;;;;4964889;28;20538;-76
2022/10/05 03:06:29;;;;;;;13.82;9.20;;;14.60;99.90;;;;;;4966521;28;20152;-76
2022/10/05 03:09:03;;;;;;;14.18;8.45;;;14.60;99.90;;;;;;4965903;28;20093;-76
2022/10/05 03:11:53;;;;;;;12.32;8.52;;;14.60;99.90;;;;;;4960583;28;20041;-76
2022/10/05 03:14:27;;;;;;;12.32;8.35;;;14.60;99.90;;;;;;4968467;28;20039;-76
2022/10/05 03:17:11;;;;;;;14.07;8.07;;;14.50;99.90;;;;;;4968277;28;20077;-76
2022/10/05 03:20:01;;;;;;;12.38;8.90;;;14.50;99.90;;;;;;4960065;28;20085;-76
2022/10/05 03:22:45;;;;;;;11.05;7.78;;;14.50;99.90;;;;;;4959508;28;20046;-76
2022/10/05 03:25:32;;;;;;;10.93;7.85;;;14.50;99.90;;;;;;4953409;28;20046;-76
2022/10/05 03:28:39;;;;;;;11.57;7.90;;;14.50;99.90;;;;;;4969396;28;20051;-76
2022/10/05 03:31:30;;;;;;;13.63;8.13;;;14.50;99.90;;;;;;4964683;28;20138;-76
2022/10/05 03:34:18;;;;;;;11.13;8.18;;;14.50;99.90;;;;;;4970722;28;20479;-76
2022/10/05 03:37:16;;;;;;;12.35;8.20;;;14.50;99.90;;;;;;4964692;28;20073;-76
2022/10/05 03:40:00;;;;;;;13.50;8.23;;;14.50;99.90;;;;;;4945979;28;20055;-76
2022/10/05 03:42:51;;;;;;;14.50;9.07;;;14.50;99.90;;;;;;4967631;28;20498;-76
2022/10/05 03:45:24;;;;;;;13.10;9.23;;;14.50;99.90;;;;;;4961404;28;20475;-76
2022/10/05 03:48:07;;;;;;;11.63;8.65;;;14.50;99.90;;;;;;4959205;28;20051;-76
2022/10/05 03:50:54;;;;;;;14.07;9.52;;;14.40;99.90;;;;;;4961220;28;20038;-76
2022/10/05 03:53:25;;;;;;;15.00;9.20;;;14.50;99.90;;;;;;4957747;28;20053;-76
2022/10/05 03:56:08;;;;;;;14.02;9.45;;;14.40;99.90;;;;;;4965876;28;20035;-76
2022/10/05 03:58:41;;;;;;;13.70;9.50;;;14.40;99.90;;;;;;4967002;28;20058;-76
2022/10/05 04:01:15;;;;;;;12.77;9.73;;;14.40;99.90;;;;;;4964877;28;20598;-76
2022/10/05 04:03:49;;;;;;;13.27;10.02;;;14.10;99.90;;;;;;4962516;28;20475;-76
2022/10/05 04:06:21;;;;;;;14.23;9.63;;;14.40;99.90;;;;;;4951621;28;20121;-76
2022/10/05 04:09:03;;;;;;;14.02;10.15;;;14.30;99.90;;;;;;4961697;28;20054;-76
2022/10/05 04:11:35;;;;;;;13.70;10.32;;;14.30;99.90;;;;;;4975229;28;20047;-77
2022/10/05 04:14:17;;;;;;;14.75;10.45;;;14.30;99.90;;;;;;4963395;28;20032;-76
2022/10/05 04:16:48;;;;;;;13.00;10.15;;;14.30;99.90;;;;;;4969283;28;20039;-76
2022/10/05 04:19:21;;;;;;;14.35;10.52;;;14.30;99.90;;;;;;4977355;28;20051;-76
2022/10/05 04:21:57;;;;;;;13.98;10.90;;;14.20;99.90;;;;;;4970505;28;20050;-76
2022/10/05 04:24:31;;;;;;;16.38;10.63;;;14.20;99.90;;;;;;4978016;28;20169;-76
2022/10/05 04:27:02;;;;;;;15.00;10.35;;;14.20;99.90;;;;;;4970289;28;20043;-76
2022/10/05 04:29:39;;;;;;;14.43;10.77;;;14.20;99.90;;;;;;4956507;28;20051;-76
2022/10/05 04:32:12;;;;;;;14.27;11.00;;;14.20;99.90;;;;;;4970050;28;20380;-76
2022/10/05 04:34:53;;;;;;;15.90;11.98;;;14.20;99.90;;;;;;4967813;28;20048;-76
2022/10/05 04:37:29;;;;;;;15.63;11.38;;;14.20;99.90;;;;;;4974241;28;20100;-76
2022/10/05 04:40:07;;;;;;;15.52;11.88;;;14.20;99.90;;;;;;4969118;28;20126;-76
2022/10/05 04:42:39;;;;;;;15.57;11.23;;;14.20;99.90;;;;;;4966472;28;20043;-76
2022/10/05 04:45:20;;;;;;;16.55;11.32;;;14.20;99.90;;;;;;4969118;28;20066;-76
2022/10/05 04:48:20;;;;;;;17.35;12.20;;;14.20;99.90;;;;;;4980692;28;20478;-76
2022/10/05 04:51:12;;;;;;;19.48;12.30;;;14.20;99.90;;;;;;4977195;28;20039;-76
2022/10/05 04:53:53;;;;;;;17.02;12.70;;;14.10;99.90;;;;;;4964795;28;20055;-76
2022/10/05 04:56:29;;;;;;;17.27;12.20;;;14.10;99.90;;;;;;4986078;28;20507;-76
2022/10/05 04:59:04;;;;;;;16.60;12.40;;;14.00;99.90;;;;;;4976015;28;20594;-76
2022/10/05 05:01:50;;;;;;;18.05;12.73;;;14.00;99.90;;;;;;4972205;28;20509;-76
2022/10/05 05:04:44;;;;;;;16.25;12.77;;;14.00;99.90;;;;;;4970118;28;20479;-76
2022/10/05 05:07:37;;;;;;;15.70;13.18;;;14.00;99.90;;;;;;4969984;28;20043;-76
2022/10/05 05:10:22;;;;;;;17.52;13.50;;;14.00;99.90;;;;;;4975472;28;20113;-76
2022/10/05 05:13:13;;;;;;;18.20;13.25;;;14.00;99.90;;;;;;4972018;28;20491;-76
2022/10/05 05:15:52;;;;;;;19.20;13.85;;;14.00;99.90;;;;;;4978046;28;20046;-76
2022/10/05 05:18:24;;;;;;;18.80;13.88;;;13.90;99.90;;;;;;4974855;28;20045;-76
2022/10/05 05:21:12;;;;;;;19.25;14.60;;;13.90;99.90;;;;;;4966811;28;20506;-76
2022/10/05 05:23:55;;;;;;;19.17;14.60;;;13.90;99.90;;;;;;4973839;28;20125;-76
2022/10/05 05:27:05;;;;;;;18.50;14.73;;;13.80;99.90;;;;;;4969984;28;20125;-76
2022/10/05 05:30:01;;;;;;;18.63;14.52;;;13.80;99.90;;;;;;4921432;28;20483;-79
2022/10/05 05:33:05;;;;;;;20.45;14.68;;;13.70;99.90;;;;;;4974025;28;20047;-74
2022/10/05 05:35:36;;;;;;;20.25;15.60;;;13.60;99.90;;;;;;4972548;28;20050;-74
2022/10/05 05:38:30;;;;;;;21.42;15.80;;;13.70;99.90;;;;;;4971565;28;20491;-75
2022/10/05 05:41:02;;;;;;;20.35;14.93;;;13.70;99.90;;;;;;4964925;28;20122;-76
2022/10/05 05:43:42;;;;;;;17.35;13.93;;;13.70;99.90;;;;;;4974950;28;20043;-76
2022/10/05 05:46:21;;;;;;;19.90;15.20;;;13.70;99.90;;;;;;4959680;28;20083;-76
2022/10/05 05:48:50;;;;;;;21.45;15.20;;;13.70;99.90;;;;;;4946401;28;20095;-76
2022/10/05 05:51:33;;;;;;;21.25;15.23;;;13.70;99.90;;;;;;4967722;28;20077;-76
2022/10/05 05:54:22;;;;;;;21.30;15.52;;;13.70;99.90;;;;;;4957058;28;20114;-75
2022/10/05 05:56:58;;;;;;;20.13;15.57;;;13.70;99.90;;;;;;4955536;28;20062;-75
2022/10/05 05:59:36;;;;;;;20.75;16.38;;;13.80;99.90;;;;;;4958366;28;20551;-75
2022/10/05 06:02:08;;;;;;;21.10;15.10;;;13.70;99.90;;;;;;4957875;28;20078;-76
2022/10/05 06:04:50;;;;;;;23.42;16.00;;;13.80;99.90;;;;;;4954849;28;20043;-76
2022/10/05 06:07:23;;;;;;;19.23;15.85;;;13.70;99.90;;;;;;4968388;28;20047;-78
2022/10/05 06:09:52;;;;;;;20.25;15.23;;;13.80;99.90;;;;;;4958654;28;20514;-75
2022/10/05 06:12:24;;;;;;;19.50;15.65;;;13.80;99.90;;;;;;4970631;28;20040;-77
2022/10/05 06:15:18;;;;;;;19.10;14.85;;;13.80;99.90;;;;;;4961215;28;20038;-81
2022/10/05 06:17:49;;;;;;;18.52;14.82;;;13.80;99.90;;;;;;4951736;28;20435;-77
2022/10/05 06:20:22;;;;;;;19.60;15.18;;;13.90;99.90;;;;;;4921539;28;20114;-77
2022/10/05 06:22:50;;;;;;;21.17;15.63;;;13.90;99.90;;;;;;4954368;28;20047;-77
2022/10/05 06:25:27;;;;;;;18.70;15.45;;;13.90;99.90;;;;;;4975954;28;20397;-78
2022/10/05 06:28:02;;;;;;;19.38;15.73;;;13.90;99.90;;;;;;4955159;28;20047;-78
2022/10/05 06:30:43;;;;;;;18.88;14.88;;;13.90;99.90;;;;;;4958782;28;20130;-77
2022/10/05 06:33:16;;;;;;;17.75;15.45;;;14.00;99.90;;;;;;4963775;28;20074;-78
2022/10/05 06:35:42;;;;;;;19.10;15.43;;;14.00;99.90;;;;;;4969697;28;20043;-78
2022/10/05 06:38:49;;;;;;;16.88;14.95;;;14.00;99.90;;;;;;4959212;28;20145;-79
2022/10/05 06:41:52;;;;;;;19.05;14.88;;;14.00;99.90;;;;;;4986535;28;20101;-80
2022/10/05 06:44:46;;;;;;;17.08;13.82;;;14.10;99.90;;;;;;4972067;28;20129;-80
2022/10/05 06:47:41;;;;;;;16.85;14.43;;;14.10;99.90;;;;;;4950055;28;20054;-80
2022/10/05 06:50:36;;;;;;;17.88;15.07;;;14.10;99.90;;;;;;4981945;28;20069;-80
2022/10/05 06:53:06;;;;;;;18.40;14.60;;;14.10;99.90;;;;;;4973553;28;20050;-82
2022/10/05 06:55:38;;;;;;;16.63;13.48;;;14.10;99.90;;;;;;4976556;28;20078;-80
2022/10/05 06:58:11;;;;;;;16.25;14.27;;;14.20;99.90;;;;;;4962049;28;20129;-82
2022/10/05 07:00:54;;;;;;;18.20;14.88;;;14.20;99.90;;;;;;4976568;28;20053;-78
2022/10/05 07:03:55;;;;;;;17.50;13.60;;;14.20;99.90;;;;;;4974753;28;20050;-78
2022/10/05 07:06:43;;;;;;;19.05;14.30;;;14.20;99.90;;;;;;4975440;28;20054;-81
2022/10/05 07:09:47;;;;;;;17.92;13.52;;;14.20;99.90;;;;;;4972945;28;20109;-80
2022/10/05 07:12:37;;;;;;;17.90;13.35;;;14.30;99.90;;;;;;4938726;28;20499;-77
2022/10/05 07:15:21;;;;;;;15.70;13.38;;;14.30;99.90;;;;;;4975090;28;20039;-77
2022/10/05 07:18:20;;;;;;;17.60;13.23;;;14.30;99.90;;;;;;4970401;28;20458;-77
2022/10/05 07:20:54;;;;;;;15.18;12.40;;;14.40;99.90;;;;;;4968855;28;20042;-77
2022/10/05 07:23:26;;;;;;;15.70;12.57;;;14.30;99.90;;;;;;4971326;28;20093;-77
2022/10/05 07:26:27;;;;;;;14.07;12.57;;;14.40;99.90;;;;;;4971480;28;20514;-77
2022/10/05 07:29:09;;;;;;;17.50;13.07;;;14.50;99.90;;;;;;4926752;28;20101;-77
2022/10/05 07:31:47;;;;;;;;;;;14.50;99.90;;;;;;4962679;28;20055;-77
2022/10/05 07:34:37;;;;;;;15.48;11.93;;;14.50;99.90;;;;;;4975665;28;19924;-77
2022/10/05 07:40:14;;;;;;;17.85;12.73;;;14.60;99.90;;;;;;4973304;28;20058;-77
2022/10/05 07:43:36;;;;;;;15.07;12.18;;;14.60;99.90;;;;;;4959375;28;20530;-77
2022/10/05 07:46:31;;;;;;;17.38;12.52;;;14.60;99.90;;;;;;4947070;28;20109;-77
2022/10/05 07:49:32;;;;;;;16.23;11.90;;;14.70;99.90;;;;;;4957505;28;20074;-77
2022/10/05 07:52:04;;;;;;;14.80;12.07;;;14.70;99.90;;;;;;4959298;28;20049;-77
2022/10/05 07:55:02;;;;;;;15.48;12.20;;;14.80;99.90;;;;;;4963068;28;20113;-77
2022/10/05 07:57:55;;;;;;;16.50;12.10;;;14.80;99.90;;;;;;4964655;28;20066;-77
2022/10/05 08:00:23;;;;;;;13.13;11.05;;;14.90;99.90;;;;;;4970875;28;20402;-77
2022/10/05 08:03:03;;;;;;;15.52;11.82;;;14.90;99.90;;;;;;4971590;28;20126;-76
2022/10/05 08:05:32;;;;;;;14.80;11.70;;;15.00;99.90;;;;;;4977799;28;20449;-77
2022/10/05 08:08:10;;;;;;;16.98;12.55;;;15.10;99.90;;;;;;4955910;28;20050;-77
2022/10/05 08:10:40;;;;;;;14.88;11.75;;;15.10;99.90;;;;;;4979118;28;20046;-76
2022/10/05 08:13:23;;;;;;;16.38;12.20;;;15.20;99.90;;;;;;4984532;28;20464;-77
2022/10/05 08:15:52;;;;;;;13.30;11.40;;;15.20;99.90;;;;;;4962852;28;20097;-76
2022/10/05 08:18:24;;;;;;;15.48;12.02;;;15.30;99.90;;;;;;4950656;28;20541;-77
2022/10/05 08:20:56;;;;;;;13.98;10.95;;;15.30;99.90;;;;;;4971989;28;20437;-76
2022/10/05 08:23:41;;;;;;;;;;;15.30;99.90;;;;;;4960429;28;20512;-76
2022/10/05 08:26:31;;;;;;;12.48;10.20;;;15.40;99.90;;;;;;4964195;28;19923;-76
2022/10/05 08:29:30;;;;;;;12.05;10.25;;;15.40;99.90;;;;;;4988774;28;20042;-76
2022/10/05 08:32:00;;;;;;;12.68;10.02;;;15.40;99.90;;;;;;4955228;28;20125;-76
2022/10/05 08:34:44;;;;;;;12.35;9.70;;;15.50;99.90;;;;;;4974815;28;20498;-76
2022/10/05 08:37:13;;;;;;;12.90;10.00;;;15.50;99.90;;;;;;4970745;28;20119;-76
2022/10/05 08:39:47;;;;;;;11.80;9.25;;;15.60;99.90;;;;;;4975548;28;20478;-76
2022/10/05 08:42:21;;;;;;;12.23;9.07;;;15.60;99.90;;;;;;4976303;28;20551;-76
2022/10/05 08:45:08;;;;;;;14.57;9.38;;;15.70;99.90;;;;;;4970980;28;20487;-76
2022/10/05 08:47:52;;;;;;;11.25;8.43;;;15.80;99.90;;;;;;4974718;28;20159;-76
2022/10/05 08:50:42;;;;;;;12.25;8.30;;;15.80;99.90;;;;;;4960082;28;20082;-76
2022/10/05 08:53:22;;;;;;;11.55;8.52;;;15.90;99.90;;;;;;4971020;28;20046;-77
2022/10/05 08:56:06;;;;;;;10.32;8.27;;;16.00;99.90;;;;;;4974131;28;20129;-77
2022/10/05 08:59:10;;;;;;;13.38;9.13;;;16.10;99.90;;;;;;4957265;28;20099;-76
2022/10/05 09:01:47;;;;;;;11.13;8.48;;;16.10;99.90;;;;;;4960622;28;20078;-76
2022/10/05 09:04:24;;;;;;;10.48;8.15;;;16.20;99.90;;;;;;4975927;28;20042;-77
2022/10/05 09:07:26;;;;;;;11.15;8.55;;;16.20;99.90;;;;;;4971840;28;20047;-76
2022/10/05 09:10:29;;;;;;;10.50;8.25;;;16.30;99.90;;;;;;4977977;28;20034;-76
2022/10/05 09:13:20;;;;;;;10.45;7.80;;;16.40;99.90;;;;;;4968668;28;20577;-77
2022/10/05 09:16:11;;;;;;;10.38;7.38;;;16.40;99.90;;;;;;4973019;28;20050;-77
2022/10/05 09:19:01;;;;;;;9.65;6.80;;;16.50;99.90;;;;;;4974231;28;20502;-76
2022/10/05 09:21:45;;;;;;;9.18;6.63;;;16.60;99.90;;;;;;4962713;28;20042;-77
2022/10/05 09:24:14;;;;;;;10.32;6.97;;;16.60;99.90;;;;;;4969444;28;20042;-77
2022/10/05 09:26:39;;;;;;;10.48;6.45;;;16.70;99.90;;;;;;4967143;28;20039;-77
2022/10/05 09:29:43;;;;;;;8.88;6.70;;;16.80;99.90;;;;;;4964045;28;20042;-76
2022/10/05 09:32:38;;;;;;;8.80;6.68;;;16.80;99.90;;;;;;4957062;28;20051;-77
2022/10/05 09:35:32;;;;;;;11.10;6.25;;;16.70;99.90;;;;;;4969900;28;20054;-78
2022/10/05 09:38:23;;;;;;;8.55;6.13;;;16.80;99.90;;;;;;4969120;28;20050;-78
2022/10/05 09:40:55;;;;;;;9.55;5.95;;;16.70;99.90;;;;;;4970968;28;20034;-78
2022/10/05 09:43:45;;;;;;;8.32;5.53;;;16.70;99.90;;;;;;4965720;28;20521;-78
2022/10/05 09:46:26;;;;;;;7.95;5.25;;;16.70;99.90;;;;;;4983122;28;20487;-78
2022/10/05 09:49:02;;;;;;;9.93;5.75;;;16.70;99.90;;;;;;4970800;28;20035;-77
2022/10/05 09:52:05;;;;;;;9.68;5.90;;;16.70;99.90;;;;;;4956827;28;20047;-78
2022/10/05 09:54:46;;;;;;;9.55;5.80;;;16.60;99.90;;;;;;4954344;28;20043;-78
2022/10/05 09:57:17;;;;;;;9.60;5.72;;;16.70;99.90;;;;;;4971160;28;20518;-78
2022/10/05 10:00:06;;;;;;;8.05;5.28;;;16.60;99.90;;;;;;4959313;28;20051;-78
2022/10/05 10:03:03;;;;;;;9.45;6.05;;;16.60;99.90;;;;;;4963113;28;20055;-78
2022/10/05 10:06:20;;;;;;;8.77;5.88;;;16.60;99.90;;;;;;4955413;28;20499;-78
2022/10/05 10:08:56;;;;;;;8.75;6.25;;;16.60;99.90;;;;;;4932753;28;20108;-78
2022/10/05 10:11:48;;;;;;;9.48;6.05;;;16.50;99.90;;;;;;4963154;28;20054;-78
2022/10/05 10:14:49;;;;;;;9.57;5.80;;;16.50;99.90;;;;;;4960251;28;20101;-77
2022/10/05 10:17:54;;;;;;;7.90;5.75;;;16.40;99.90;;;;;;4946882;28;20076;-78
2022/10/05 10:20:48;;;;;;;9.73;6.13;;;16.40;99.90;;;;;;4951767;28;20043;-78
2022/10/05 10:23:41;;;;;;;8.30;6.00;;;16.50;99.90;;;;;;4975276;28;20122;-77
2022/10/05 10:26:35;;;;;;;8.45;6.05;;;16.50;99.90;;;;;;4951760;28;20491;-78
2022/10/05 10:29:38;;;;;;;8.07;5.72;;;16.60;99.90;;;;;;4963335;28;20138;-78
2022/10/05 10:32:36;;;;;;;8.15;5.70;;;16.60;99.90;;;;;;4966062;28;20557;-78
2022/10/05 10:35:23;;;;;;;9.20;5.90;;;16.60;99.90;;;;;;4957183;28;20049;-78
2022/10/05 10:38:18;;;;;;;8.52;5.72;;;16.60;99.90;;;;;;4976648;28;20125;-79
2022/10/05 10:41:23;;;;;;;8.70;5.95;;;16.70;99.90;;;;;;4978136;28;20510;-78
2022/10/05 10:44:04;;;;;;;10.27;6.10;;;16.70;99.90;;;;;;4977766;28;20049;-78
2022/10/05 10:46:57;;;;;;;7.57;5.50;;;16.70;99.90;;;;;;4951909;28;20046;-78
2022/10/05 10:49:58;;;;;;;8.15;5.60;;;16.80;99.90;;;;;;4985743;28;20036;-78
2022/10/05 10:52:52;;;;;;;8.13;5.38;;;16.80;99.90;;;;;;4917143;29;20493;-77
2022/10/05 10:55:49;;;;;;;8.07;5.60;;;16.80;99.90;;;;;;4976563;28;20508;-77
2022/10/05 10:58:20;;;;;;;7.05;5.20;;;16.90;99.90;;;;;;4985825;28;20092;-78
2022/10/05 11:00:58;;;;;;;7.47;5.10;;;16.90;99.90;;;;;;4963753;28;20045;-78
2022/10/05 11:03:30;;;;;;;7.85;5.03;;;17.00;99.90;;;;;;4984234;28;20046;-78
2022/10/05 11:06:16;;;;;;;8.15;4.50;;;17.00;99.90;;;;;;4976343;28;20047;-78
2022/10/05 11:08:50;;;;;;;6.97;4.53;;;17.00;99.90;;;;;;4974294;28;20043;-79
2022/10/05 11:11:25;;;;;;;7.78;4.35;;;17.10;99.90;;;;;;4953608;28;20144;-78
2022/10/05 11:14:23;;;;;;;6.38;3.88;;;17.10;99.90;;;;;;4967716;28;20129;-77
2022/10/05 11:17:17;;;;;;;6.50;3.42;;;17.20;99.90;;;;;;4953213;28;20610;-78
2022/10/05 11:20:16;;;;;;;6.75;3.47;;;17.30;99.90;;;;;;4967107;28;20555;-79
2022/10/05 11:22:55;;;;;;;6.63;3.15;;;17.40;99.90;;;;;;4966713;28;20050;-78
2022/10/05 11:25:54;;;;;;;6.25;3.13;;;17.40;99.90;;;;;;4982908;28;20042;-78
2022/10/05 11:28:32;;;;;;;5.63;3.00;;;17.50;99.90;;;;;;4967753;28;20140;-77
2022/10/05 11:31:36;;;;;;;6.03;3.20;;;17.50;99.90;;;;;;4971816;28;20047;-77
2022/10/05 11:34:44;;;;;;;5.97;3.30;;;17.60;99.90;;;;;;4981007;28;20052;-77
2022/10/05 11:37:22;;;;;;;6.88;3.22;;;17.70;99.90;;;;;;4970301;28;20064;-77
2022/10/05 11:40:36;;;;;;;6.95;3.40;;;17.70;99.90;;;;;;4949826;28;20084;-77
2022/10/05 11:43:41;;;;;;;6.53;3.10;;;17.70;99.90;;;;;;4953687;28;20043;-78
2022/10/05 11:46:13;;;;;;;6.32;3.40;;;17.80;99.90;;;;;;4966688;28;20125;-77
2022/10/05 11:48:47;;;;;;;;;;;17.80;99.90;;;;;;4973203;28;20066;-77
2022/10/05 11:51:13;;;;;;;8.68;3.80;;;17.90;99.90;;;;;;4967213;28;19918;-77
2022/10/05 11:53:44;;;;;;;7.13;3.65;;;17.90;99.90;;;;;;4971725;28;20430;-77
2022/10/05 11:56:28;;;;;;;7.18;3.50;;;17.90;99.90;;;;;;4972315;28;20169;-77
2022/10/05 11:59:18;;;;;;;7.25;3.80;;;18.00;99.90;;;;;;4965072;28;20517;-78
2022/10/05 12:02:00;;;;;;;6.60;3.75;;;18.00;99.90;;;;;;4954031;28;20046;-77
2022/10/05 12:04:55;;;;;;;7.00;3.80;;;18.00;99.90;;;;;;4984283;28;20492;-77
2022/10/05 12:07:34;;;;;;;7.70;4.10;;;17.90;99.90;;;;;;4967058;28;20402;-77
2022/10/05 12:10:23;;;;;;;5.78;3.60;;;17.90;99.90;;;;;;4956119;28;20050;-78
2022/10/05 12:13:24;;;;;;;7.13;3.70;;;17.80;99.90;;;;;;4951722;28;20063;-77
2022/10/05 12:16:09;;;;;;;6.93;3.78;;;17.80;99.90;;;;;;4949227;28;20103;-78
2022/10/05 12:18:38;;;;;;;6.82;3.63;;;17.80;99.90;;;;;;4955978;28;20042;-78
2022/10/05 12:21:09;;;;;;;7.85;3.75;;;17.70;99.90;;;;;;4972404;28;20075;-77
2022/10/05 12:24:08;;;;;;;6.20;3.50;;;17.70;99.90;;;;;;4971920;28;20046;-77
2022/10/05 12:26:39;;;;;;;7.20;3.72;;;17.60;99.90;;;;;;4971472;28;20051;-78
2022/10/05 12:29:34;;;;;;;7.82;3.70;;;17.60;99.90;;;;;;4971644;28;20127;-79
2022/10/05 12:32:07;;;;;;;8.10;3.47;;;17.60;99.90;;;;;;4957240;28;20086;-77
2022/10/05 12:34:51;;;;;;;7.38;3.20;;;17.60;99.90;;;;;;4972179;28;20053;-78
2022/10/05 12:37:46;;;;;;;7.03;3.33;;;17.60;99.90;;;;;;4971330;28;20077;-78
2022/10/05 12:40:45;;;;;;;7.40;3.40;;;17.60;99.90;;;;;;4968863;28;20050;-78
2022/10/05 12:43:29;;;;;;;7.03;3.50;;;17.60;99.90;;;;;;4971771;28;20051;-78
2022/10/05 12:46:01;;;;;;;5.47;3.08;;;17.60;99.90;;;;;;4966202;28;20038;-77
2022/10/05 12:48:47;;;;;;;6.93;3.40;;;17.60;99.90;;;;;;4965087;28;20039;-78
2022/10/05 12:51:27;;;;;;;6.40;3.33;;;17.60;99.90;;;;;;4960919;28;20035;-77
2022/10/05 12:54:21;;;;;;;6.97;3.00;;;17.70;99.90;;;;;;4967869;28;20098;-78
2022/10/05 12:56:49;;;;;;;6.00;3.40;;;17.70;99.90;;;;;;4972015;28;20042;-78
2022/10/05 12:59:33;;;;;;;6.13;2.95;;;17.70;99.90;;;;;;4970918;28;20034;-78
2022/10/05 13:02:20;;;;;;;7.80;3.13;;;17.80;99.90;;;;;;4955284;28;20054;-77
2022/10/05 13:05:04;;;;;;;6.53;3.20;;;17.80;99.90;;;;;;4969960;28;20047;-77
2022/10/05 13:08:01;;;;;;;7.03;2.97;;;17.80;99.90;;;;;;4970643;28;20054;-78
2022/10/05 13:10:35;;;;;;;6.80;3.20;;;17.90;99.90;;;;;;4974629;28;20039;-78
2022/10/05 13:13:21;;;;;;;7.38;3.10;;;18.00;99.90;;;;;;4883559;28;20594;-78
2022/10/05 13:16:00;;;;;;;5.93;3.10;;;18.10;99.90;;;;;;4958186;28;20833;-77
2022/10/05 13:18:40;;;;;;;6.80;3.20;;;18.10;99.90;;;;;;4965325;28;20066;-78
2022/10/05 13:21:23;;;;;;;6.20;3.00;;;18.20;99.90;;;;;;4975612;28;20067;-78
2022/10/05 13:24:12;;;;;;;7.22;3.20;;;18.20;99.90;;;;;;4959271;28;20039;-78
2022/10/05 13:26:42;;;;;;;6.10;3.03;;;18.30;99.90;;;;;;4963889;28;20047;-77
2022/10/05 13:29:33;;;;;;;6.93;3.10;;;18.20;99.90;;;;;;4954178;28;20039;-78
2022/10/05 13:32:05;;;;;;;6.35;3.15;;;18.20;99.90;;;;;;4942416;28;20051;-77
2022/10/05 13:34:37;;;;;;;;;;;18.30;99.90;;;;;;4968934;28;20069;-77
2022/10/05 13:37:45;;;;;;;8.38;3.20;;;18.30;99.90;;;;;;4968234;28;20358;-77
2022/10/05 13:40:38;;;;;;;6.03;2.88;;;18.30;99.90;;;;;;4943034;28;20054;-78
2022/10/05 13:43:37;;;;;;;6.30;2.95;;;18.40;99.90;;;;;;4961097;28;20089;-77
2022/10/05 13:46:31;;;;;;;6.00;2.92;;;18.50;99.90;;;;;;4940274;28;20146;-77
2022/10/05 13:49:30;;;;;;;6.47;2.88;;;18.50;99.90;;;;;;4974696;28;20574;-77
2022/10/05 13:52:41;;;;;;;7.15;3.10;;;18.50;99.90;;;;;;4974393;28;20053;-77
2022/10/05 13:55:35;;;;;;;7.18;2.70;;;18.50;99.90;;;;;;4973869;28;20118;-77
2022/10/05 13:58:26;;;;;;;8.35;2.88;;;18.50;99.90;;;;;;4970851;28;20051;-78
2022/10/05 14:00:58;;;;;;;6.53;2.83;;;18.40;99.90;;;;;;4964054;28;20130;-78
2022/10/05 14:03:36;;;;;;;6.20;3.08;;;18.50;99.90;;;;;;4957405;28;20129;-77
2022/10/05 14:06:11;;;;;;;6.68;3.10;;;18.50;99.90;;;;;;4970945;28;20053;-77
2022/10/05 14:08:53;;;;;;;5.88;2.90;;;18.50;99.90;;;;;;4970918;28;20094;-78